Veramara III — 2DGO5 — position and weather

sailwx.info

Track history (hours):
 
Tides and Currents Weather Stations Pressure Air Temp Water Temp Dewpoint Dewpoint Depression Visibility Wind Speed Wind Dir Waves Ship Positions

Veramara III

Last reported at 2014-May-11 15:04 UTC. Time now 2014-Oct-31 06:22 UTC.
Position N 38°33' W 009°22'.
Warning: this ship's position is months out of date.

Type: Pleasure craft. MMSI: 235078777.

Date/timePositionNaut miles runAvg speedWind from/ knotsBaromVisibWave heightAir tempDewpointWater temp
2014-May-11 15:04N 38°33' W 009°22'4 6.2
2014-May-11 14:29N 38°30' W 009°20'20 6.8
2014-May-11 11:31N 38°13' W 009°06'7 7.3
2014-May-11 10:32N 38°07' W 009°01'7 7.3
2014-May-11 09:33N 38°01' W 008°57'5 5.1
2014-May-11 08:32N 37°57' W 008°52'0 0.0
2014-May-10 22:19N 37°57' W 008°52'0 0.0
2014-May-10 21:31N 37°57' W 008°52'0 0.0
2014-May-10 20:31N 37°57' W 008°52'0 0.0
2014-May-10 19:31N 37°57' W 008°52'0 0.0
2014-May-10 18:31N 37°57' W 008°52'1 0.8
2014-May-10 17:33N 37°56' W 008°52'8 7.8
2014-May-10 16:33N 37°49' W 008°56'  
2014-May-06 22:23N 38°54' E 002°40'8 8.2
2014-May-06 21:22N 38°59' E 002°48'23 7.1
2014-May-06 18:10N 39°12' E 003°12'  
Track history (hours):
 
Tides and Currents Weather Stations Pressure Air Temp Water Temp Dewpoint Dewpoint Depression Visibility Wind Speed Wind Dir Waves Ship Positions

Veramara III

Last reported at 2014-May-11 15:04 UTC. Time now 2014-Oct-31 06:22 UTC.
Position N 38°33' W 009°22'.
Warning: this ship's position is months out of date.

Type: Pleasure craft. MMSI: 235078777.

Date/timePositionNaut miles runAvg speedWind from/ knotsBaromVisibWave heightAir tempDewpointWater temp
2014-May-11 15:04N 38°33' W 009°22'4 6.2
2014-May-11 14:29N 38°30' W 009°20'20 6.8
2014-May-11 11:31N 38°13' W 009°06'7 7.3
2014-May-11 10:32N 38°07' W 009°01'7 7.3
2014-May-11 09:33N 38°01' W 008°57'5 5.1
2014-May-11 08:32N 37°57' W 008°52'0 0.0
2014-May-10 22:19N 37°57' W 008°52'0 0.0
2014-May-10 21:31N 37°57' W 008°52'0 0.0
2014-May-10 20:31N 37°57' W 008°52'0 0.0
2014-May-10 19:31N 37°57' W 008°52'0 0.0
2014-May-10 18:31N 37°57' W 008°52'1 0.8
2014-May-10 17:33N 37°56' W 008°52'8 7.8
2014-May-10 16:33N 37°49' W 008°56'  
2014-May-06 22:23N 38°54' E 002°40'8 8.2
2014-May-06 21:22N 38°59' E 002°48'23 7.1
2014-May-06 18:10N 39°12' E 003°12'  

Dump ship's entire track history